createdAt,value
2018-12-17T00:01:09.061Z,4.90
2018-12-17T00:03:35.620Z,5.00
2018-12-17T00:06:01.879Z,4.90
2018-12-17T00:08:31.975Z,4.90
2018-12-17T00:10:55.097Z,5.00
2018-12-17T00:13:21.305Z,4.90
2018-12-17T00:15:47.556Z,4.90
2018-12-17T00:18:13.878Z,5.00
2018-12-17T00:20:40.140Z,5.00
2018-12-17T00:23:07.091Z,5.00
2018-12-17T00:25:33.415Z,5.00
2018-12-17T00:28:00.375Z,5.00
2018-12-17T00:30:26.609Z,5.00
2018-12-17T00:32:52.825Z,5.00
2018-12-17T00:35:19.777Z,5.10
2018-12-17T00:37:46.187Z,5.10
2018-12-17T00:40:13.163Z,5.10
2018-12-17T00:42:39.410Z,5.00
2018-12-17T00:45:06.001Z,5.20
2018-12-17T00:47:32.964Z,5.20
2018-12-17T00:49:59.189Z,5.20
2018-12-17T00:52:25.429Z,5.20
2018-12-17T00:54:51.655Z,5.10
2018-12-17T00:57:18.148Z,5.00
2018-12-17T00:59:45.125Z,5.00
2018-12-17T01:02:11.359Z,5.00
2018-12-17T01:04:37.608Z,5.00
2018-12-17T01:07:03.876Z,5.10
2018-12-17T01:09:30.857Z,5.00
2018-12-17T01:11:57.089Z,5.10
2018-12-17T01:14:23.337Z,5.10
2018-12-17T01:16:49.548Z,5.20
2018-12-17T01:19:15.798Z,5.20
2018-12-17T01:21:42.664Z,5.20
2018-12-17T01:24:08.880Z,5.20
2018-12-17T01:26:35.084Z,5.20
2018-12-17T01:29:01.347Z,5.20
2018-12-17T01:31:27.565Z,5.20
2018-12-17T01:33:53.771Z,5.20
2018-12-17T01:36:20.792Z,5.20
2018-12-17T01:38:47.040Z,5.20
2018-12-17T01:41:16.600Z,5.20
2018-12-17T01:43:43.588Z,5.10
2018-12-17T01:46:09.845Z,5.10
2018-12-17T01:48:36.063Z,5.10
2018-12-17T01:51:02.337Z,5.10
2018-12-17T01:53:29.284Z,5.10
2018-12-17T01:55:56.299Z,5.10
2018-12-17T01:58:29.040Z,5.10
2018-12-17T02:00:48.752Z,5.10
2018-12-17T02:03:14.967Z,5.20
2018-12-17T02:05:41.820Z,5.20
2018-12-17T02:08:08.064Z,5.20
2018-12-17T02:10:35.011Z,5.30
2018-12-17T02:13:01.986Z,5.30
2018-12-17T02:15:28.273Z,5.30
2018-12-17T02:17:54.571Z,5.30
2018-12-17T02:20:21.639Z,5.40
2018-12-17T02:22:47.807Z,5.30
2018-12-17T02:25:14.044Z,5.40
2018-12-17T02:27:40.267Z,5.50
2018-12-17T02:30:08.305Z,5.60
2018-12-17T02:32:35.257Z,5.60
2018-12-17T02:35:02.224Z,5.50
2018-12-17T02:37:28.437Z,5.70
2018-12-17T02:39:55.453Z,5.40
2018-12-17T02:42:21.712Z,5.40
2018-12-17T02:44:47.993Z,5.40
2018-12-17T02:47:14.232Z,5.40
2018-12-17T02:49:41.399Z,5.40
2018-12-17T02:52:08.345Z,5.40
2018-12-17T02:54:34.591Z,5.40
2018-12-17T02:57:01.443Z,5.40
2018-12-17T02:59:27.648Z,5.40
2018-12-17T03:01:54.627Z,5.50
2018-12-17T03:04:20.842Z,5.50
2018-12-17T03:06:47.059Z,5.50
2018-12-17T03:09:13.773Z,5.60
2018-12-17T03:11:39.976Z,5.60
2018-12-17T03:14:06.192Z,5.50
2018-12-17T03:16:32.448Z,5.50
2018-12-17T03:18:59.416Z,5.60
2018-12-17T03:21:25.676Z,5.60
2018-12-17T03:23:51.932Z,5.70
2018-12-17T03:26:18.165Z,5.60
2018-12-17T03:28:51.437Z,5.60
2018-12-17T03:31:10.621Z,5.70
2018-12-17T03:33:37.485Z,5.70
2018-12-17T03:36:04.512Z,5.60
2018-12-17T03:38:30.758Z,5.60
2018-12-17T03:40:57.740Z,5.70
2018-12-17T03:43:23.972Z,5.60
2018-12-17T03:45:50.261Z,5.70
2018-12-17T03:48:16.475Z,5.70
2018-12-17T03:50:42.713Z,5.70
2018-12-17T03:53:09.661Z,5.70
2018-12-17T03:55:36.648Z,5.70
2018-12-17T03:58:02.879Z,5.60
2018-12-17T04:00:29.096Z,5.60
2018-12-17T04:02:55.321Z,5.60
2018-12-17T04:05:21.611Z,5.60
2018-12-17T04:07:48.591Z,5.60
2018-12-17T04:10:14.813Z,5.60
2018-12-17T04:12:41.081Z,5.60
2018-12-17T04:15:07.350Z,5.60
2018-12-17T04:17:34.424Z,5.60
2018-12-17T04:20:00.688Z,5.50
2018-12-17T04:22:26.896Z,5.60
2018-12-17T04:24:53.144Z,5.60
2018-12-17T04:27:19.373Z,5.60
2018-12-17T04:29:47.074Z,5.60
2018-12-17T04:32:13.307Z,5.60
2018-12-17T04:34:40.248Z,5.60
2018-12-17T04:37:06.507Z,5.60
2018-12-17T04:39:32.727Z,5.60
2018-12-17T04:41:58.965Z,5.50
2018-12-17T04:44:25.209Z,5.60
2018-12-17T04:46:52.245Z,5.60
2018-12-17T04:49:18.483Z,5.70
2018-12-17T04:51:44.704Z,5.60
2018-12-17T04:54:10.957Z,5.60
2018-12-17T04:56:37.196Z,5.60
2018-12-17T04:59:04.180Z,5.60
2018-12-17T05:01:30.387Z,5.60
2018-12-17T05:03:56.643Z,5.60
2018-12-17T05:06:22.884Z,5.60
2018-12-17T05:08:49.117Z,5.60
2018-12-17T05:11:15.352Z,5.50
2018-12-17T05:13:41.578Z,5.50
2018-12-17T05:16:07.816Z,5.50
2018-12-17T05:18:34.056Z,5.50
2018-12-17T05:21:00.300Z,5.50
2018-12-17T05:23:27.249Z,5.50
2018-12-17T05:25:53.492Z,5.50
2018-12-17T05:28:19.688Z,5.50
2018-12-17T05:30:46.657Z,5.50
2018-12-17T05:33:12.944Z,5.50
2018-12-17T05:35:39.198Z,5.60
2018-12-17T05:38:05.439Z,5.40
2018-12-17T05:40:31.679Z,5.40
2018-12-17T05:42:57.900Z,5.40
2018-12-17T05:45:24.205Z,5.40
2018-12-17T05:47:51.168Z,5.40
2018-12-17T05:50:17.359Z,5.40
2018-12-17T05:52:43.595Z,5.40
2018-12-17T05:55:10.577Z,5.40
2018-12-17T05:57:36.821Z,5.40
2018-12-17T06:00:03.789Z,5.40
2018-12-17T06:02:30.764Z,5.50
2018-12-17T06:04:57.735Z,5.60
2018-12-17T06:07:23.967Z,5.50
2018-12-17T06:09:50.193Z,5.60
2018-12-17T06:12:17.343Z,5.70
2018-12-17T06:14:43.565Z,5.70
2018-12-17T06:17:09.812Z,5.70
2018-12-17T06:19:36.040Z,5.70
2018-12-17T06:22:02.291Z,5.70
2018-12-17T06:24:28.516Z,5.70
2018-12-17T06:26:54.744Z,5.70
2018-12-17T06:29:20.957Z,5.70
2018-12-17T06:31:47.215Z,5.80
2018-12-17T06:34:13.415Z,5.80
2018-12-17T06:36:39.657Z,5.80
2018-12-17T06:39:05.904Z,6.00
2018-12-17T06:41:32.151Z,5.90
2018-12-17T06:43:58.403Z,5.90
2018-12-17T06:46:25.772Z,6.10
2018-12-17T06:48:52.003Z,6.10
2018-12-17T06:51:18.251Z,6.00
2018-12-17T06:53:44.500Z,6.10
2018-12-17T06:56:10.704Z,6.00
2018-12-17T06:58:36.977Z,6.00
2018-12-17T07:01:10.265Z,6.10
2018-12-17T07:03:36.696Z,6.20
2018-12-17T07:06:03.668Z,6.30
2018-12-17T07:08:29.881Z,6.30
2018-12-17T07:10:56.114Z,6.40
2018-12-17T07:13:22.412Z,6.40
2018-12-17T07:15:49.385Z,6.20
2018-12-17T07:18:15.624Z,6.20
2018-12-17T07:20:41.838Z,6.40
2018-12-17T07:23:08.077Z,6.50
2018-12-17T07:25:34.311Z,6.50
2018-12-17T07:28:00.551Z,6.50
2018-12-17T07:30:26.778Z,6.40
2018-12-17T07:32:53.049Z,6.40
2018-12-17T07:35:20.035Z,6.30
2018-12-17T07:37:46.260Z,6.30
2018-12-17T07:40:12.511Z,6.30
2018-12-17T07:42:38.716Z,6.30
2018-12-17T07:45:05.281Z,6.20
2018-12-17T07:47:31.448Z,6.10
2018-12-17T07:49:57.747Z,6.20
2018-12-17T07:52:23.956Z,6.10
2018-12-17T07:54:50.193Z,6.00
2018-12-17T07:57:17.205Z,6.00
2018-12-17T07:59:43.427Z,6.00
2018-12-17T08:02:09.680Z,6.00
2018-12-17T08:04:35.906Z,6.00
2018-12-17T08:07:02.152Z,6.00
2018-12-17T08:09:28.359Z,6.00
2018-12-17T08:11:54.599Z,6.00
2018-12-17T08:14:20.804Z,6.00
2018-12-17T08:16:47.397Z,6.00
2018-12-17T08:19:14.359Z,6.00
2018-12-17T08:21:40.596Z,6.00
2018-12-17T08:24:06.851Z,6.00
2018-12-17T08:26:33.095Z,6.20
2018-12-17T08:29:00.052Z,6.10
2018-12-17T08:31:26.240Z,6.10
2018-12-17T08:33:52.469Z,6.10
2018-12-17T08:36:18.729Z,6.10
2018-12-17T08:38:45.697Z,6.30
2018-12-17T08:41:12.671Z,6.30
2018-12-17T08:43:38.935Z,6.30
2018-12-17T08:46:05.307Z,6.30
2018-12-17T08:48:32.297Z,6.30
2018-12-17T08:50:58.529Z,6.30
2018-12-17T08:53:24.765Z,6.30
2018-12-17T08:55:51.008Z,6.30
2018-12-17T08:58:17.656Z,6.30
2018-12-17T09:00:44.624Z,6.30
2018-12-17T09:03:11.560Z,6.30
2018-12-17T09:05:37.775Z,6.30
2018-12-17T09:08:04.723Z,6.40
2018-12-17T09:10:31.003Z,6.30
2018-12-17T09:12:57.206Z,6.40
2018-12-17T09:15:23.424Z,6.50
2018-12-17T09:17:49.644Z,6.50
2018-12-17T09:20:16.595Z,6.40
2018-12-17T09:22:42.801Z,6.40
2018-12-17T09:25:09.776Z,6.40
2018-12-17T09:27:36.033Z,6.40
2018-12-17T09:30:02.459Z,6.40
2018-12-17T09:32:28.700Z,6.40
2018-12-17T09:34:54.909Z,6.40
2018-12-17T09:37:21.135Z,6.30
2018-12-17T09:39:47.355Z,6.20
2018-12-17T09:42:13.579Z,6.30
2018-12-17T09:44:39.852Z,6.30
2018-12-17T09:47:06.116Z,6.50
2018-12-17T09:49:32.350Z,6.50
2018-12-17T09:51:59.335Z,6.50
2018-12-17T09:54:25.560Z,6.40
2018-12-17T09:56:51.889Z,6.40
2018-12-17T09:59:18.315Z,6.40
2018-12-17T10:01:44.584Z,6.60
2018-12-17T10:04:11.539Z,6.40
2018-12-17T10:06:37.792Z,6.30
2018-12-17T10:09:04.120Z,6.40
2018-12-17T10:11:30.375Z,6.50
2018-12-17T10:13:56.600Z,6.40
2018-12-17T10:16:22.857Z,6.30
2018-12-17T10:18:49.113Z,6.30
2018-12-17T10:21:15.364Z,6.20
2018-12-17T10:23:41.634Z,6.20
2018-12-17T10:26:07.891Z,6.20
2018-12-17T10:28:34.228Z,6.30
2018-12-17T10:31:00.488Z,6.40
2018-12-17T10:33:26.700Z,6.40
2018-12-17T10:35:52.973Z,6.50
2018-12-17T10:38:19.196Z,6.40
2018-12-17T10:40:45.416Z,6.40
2018-12-17T10:43:11.620Z,6.50
2018-12-17T10:45:37.903Z,6.60
2018-12-17T10:48:04.859Z,6.40
2018-12-17T10:50:31.850Z,6.40
2018-12-17T10:52:58.075Z,6.40
2018-12-17T10:55:24.336Z,6.30
2018-12-17T10:57:50.552Z,6.40
2018-12-17T11:00:22.776Z,6.60
2018-12-17T11:02:49.028Z,6.70
2018-12-17T11:05:15.304Z,6.60
2018-12-17T11:07:41.528Z,6.70
2018-12-17T11:10:08.513Z,6.70
2018-12-17T11:12:34.756Z,6.70
2018-12-17T11:15:01.036Z,6.80
2018-12-17T11:17:28.011Z,6.80
2018-12-17T11:19:54.252Z,6.80
2018-12-17T11:22:21.243Z,6.80
2018-12-17T11:24:48.221Z,6.80
2018-12-17T11:27:14.442Z,6.80
2018-12-17T11:29:40.734Z,6.80
2018-12-17T11:32:11.635Z,6.80
2018-12-17T11:34:33.920Z,7.00
2018-12-17T11:37:00.908Z,7.00
2018-12-17T11:39:27.116Z,7.00
2018-12-17T11:41:53.374Z,7.00
2018-12-17T11:44:19.584Z,7.20
2018-12-17T11:46:45.832Z,7.00
2018-12-17T11:49:12.072Z,7.10
2018-12-17T11:51:38.288Z,7.10
2018-12-17T11:54:04.536Z,7.10
2018-12-17T11:56:34.496Z,7.00
2018-12-17T11:59:00.708Z,7.20
2018-12-17T12:01:27.685Z,7.20
2018-12-17T12:03:53.940Z,7.20
2018-12-17T12:06:20.200Z,7.10
2018-12-17T12:08:47.164Z,7.10
2018-12-17T12:11:14.124Z,7.20
2018-12-17T12:13:40.340Z,7.10
2018-12-17T12:16:06.568Z,7.10
2018-12-17T12:18:32.799Z,7.20
2018-12-17T12:20:59.040Z,7.20
2018-12-17T12:23:25.245Z,7.30
2018-12-17T12:25:51.500Z,7.20
2018-12-17T12:28:17.756Z,7.30
2018-12-17T12:30:44.000Z,7.30
2018-12-17T12:33:10.960Z,7.40
2018-12-17T12:35:37.960Z,7.50
2018-12-17T12:38:04.276Z,7.50
2018-12-17T12:40:30.527Z,7.50
2018-12-17T12:42:56.747Z,7.60
2018-12-17T12:45:22.987Z,7.70
2018-12-17T12:47:49.364Z,7.70
2018-12-17T12:50:15.600Z,7.60
2018-12-17T12:52:41.820Z,7.60
2018-12-17T12:55:08.086Z,7.60
2018-12-17T12:57:34.328Z,7.70
2018-12-17T13:00:00.543Z,7.80
2018-12-17T13:02:26.764Z,7.80
2018-12-17T13:04:53.003Z,7.80
2018-12-17T13:07:19.288Z,7.80
2018-12-17T13:09:45.496Z,7.80
2018-12-17T13:12:11.724Z,7.90
2018-12-17T13:14:38.708Z,7.90
2018-12-17T13:17:10.900Z,7.90
2018-12-17T13:19:37.124Z,7.90
2018-12-17T13:22:03.368Z,7.90
2018-12-17T13:24:30.388Z,7.80
2018-12-17T13:26:56.616Z,7.80
2018-12-17T13:29:22.842Z,7.90
2018-12-17T13:31:49.055Z,8.00
2018-12-17T13:34:15.320Z,8.00
2018-12-17T13:36:41.529Z,7.90
2018-12-17T13:39:07.748Z,8.00
2018-12-17T13:41:33.971Z,7.90
2018-12-17T13:44:01.005Z,8.10
2018-12-17T13:46:27.301Z,8.20
2018-12-17T13:48:54.264Z,8.10
2018-12-17T13:51:26.541Z,8.10
2018-12-17T13:53:52.815Z,8.10
2018-12-17T13:56:19.028Z,8.10
2018-12-17T13:58:45.270Z,8.10
2018-12-17T14:01:11.499Z,8.10
2018-12-17T14:03:37.713Z,8.10
2018-12-17T14:06:03.979Z,8.20
2018-12-17T14:08:30.941Z,8.20
2018-12-17T14:10:57.204Z,8.20
2018-12-17T14:13:23.407Z,8.20
2018-12-17T14:15:50.632Z,8.30
2018-12-17T14:18:22.828Z,8.30
2018-12-17T14:20:55.189Z,8.40
2018-12-17T14:23:21.454Z,8.40
2018-12-17T14:25:47.664Z,8.30
2018-12-17T14:28:13.978Z,8.30
2018-12-17T14:30:40.207Z,8.20
2018-12-17T14:33:06.425Z,8.30
2018-12-17T14:35:32.940Z,8.30
2018-12-17T14:38:01.779Z,8.20
2018-12-17T14:40:28.026Z,8.30
2018-12-17T14:42:54.256Z,8.30
2018-12-17T14:45:20.636Z,8.30
2018-12-17T14:47:46.834Z,8.30
2018-12-17T14:50:14.079Z,8.20
2018-12-17T14:52:41.051Z,8.20
2018-12-17T14:55:07.280Z,8.20
2018-12-17T14:57:33.505Z,8.10
2018-12-17T14:59:59.987Z,8.10
2018-12-17T15:02:26.222Z,8.10
2018-12-17T15:04:53.193Z,8.00
2018-12-17T15:07:19.436Z,8.00
2018-12-17T15:09:45.672Z,8.00
2018-12-17T15:12:11.904Z,8.00
2018-12-17T15:14:38.147Z,8.10
2018-12-17T15:17:04.376Z,8.20
2018-12-17T15:19:30.622Z,8.20
2018-12-17T15:21:56.864Z,8.20
2018-12-17T15:24:23.106Z,8.20
2018-12-17T15:26:50.075Z,8.40
2018-12-17T15:29:16.314Z,8.30
2018-12-17T15:31:43.193Z,8.40
2018-12-17T15:34:08.787Z,8.40
2018-12-17T15:36:35.051Z,8.30
2018-12-17T15:39:02.098Z,8.00
2018-12-17T15:41:29.075Z,8.00
2018-12-17T15:43:55.308Z,8.00
2018-12-17T15:46:21.583Z,8.00
2018-12-17T15:48:47.848Z,8.00
2018-12-17T15:51:14.072Z,7.90
2018-12-17T15:53:41.140Z,8.10
2018-12-17T15:56:07.352Z,8.10
2018-12-17T15:58:34.308Z,8.10
2018-12-17T16:01:00.552Z,8.10
2018-12-17T16:03:26.764Z,8.20
2018-12-17T16:05:53.041Z,8.20
2018-12-17T16:08:20.014Z,8.20
2018-12-17T16:10:46.989Z,8.30
2018-12-17T16:13:13.243Z,8.30
2018-12-17T16:15:39.465Z,8.30
2018-12-17T16:18:05.701Z,8.30
2018-12-17T16:20:31.956Z,8.30
2018-12-17T16:22:58.901Z,8.40
2018-12-17T16:25:25.931Z,8.40
2018-12-17T16:27:52.137Z,8.40
2018-12-17T16:30:18.364Z,8.40
2018-12-17T16:32:44.603Z,8.60
2018-12-17T16:35:10.843Z,8.50
2018-12-17T16:37:37.091Z,8.60
2018-12-17T16:40:04.151Z,8.50
2018-12-17T16:42:30.395Z,8.50
2018-12-17T16:44:56.674Z,8.50
2018-12-17T16:47:22.937Z,8.50
2018-12-17T16:49:49.140Z,8.50
2018-12-17T16:52:17.942Z,8.40
2018-12-17T16:54:44.172Z,8.40
2018-12-17T16:57:10.412Z,8.40
2018-12-17T16:59:37.185Z,8.40
2018-12-17T17:02:04.664Z,8.60
2018-12-17T17:04:30.485Z,8.50
2018-12-17T17:06:56.724Z,8.50
2018-12-17T17:09:23.741Z,8.30
2018-12-17T17:11:50.083Z,8.30
2018-12-17T17:14:17.108Z,8.40
2018-12-17T17:16:44.182Z,8.40
2018-12-17T17:19:10.468Z,8.40
2018-12-17T17:21:36.739Z,8.50
2018-12-17T17:24:03.767Z,8.70
2018-12-17T17:26:30.051Z,8.60
2018-12-17T17:28:56.306Z,8.60
2018-12-17T17:31:22.636Z,8.70
2018-12-17T17:33:48.935Z,8.80
2018-12-17T17:36:15.221Z,8.90
2018-12-17T17:38:41.471Z,8.90
2018-12-17T17:41:08.557Z,8.80
2018-12-17T17:43:34.789Z,8.80
2018-12-17T17:46:01.383Z,8.70
2018-12-17T17:48:28.362Z,8.60
2018-12-17T17:50:54.619Z,8.60
2018-12-17T17:53:20.874Z,8.60
2018-12-17T17:55:47.094Z,8.50
2018-12-17T17:58:13.353Z,8.40
2018-12-17T18:00:39.711Z,8.30
2018-12-17T18:03:05.936Z,8.40
2018-12-17T18:05:32.244Z,8.40
2018-12-17T18:07:58.556Z,8.30
2018-12-17T18:10:25.675Z,8.20
2018-12-17T18:12:52.683Z,8.30
2018-12-17T18:15:18.997Z,8.30
2018-12-17T18:17:45.390Z,8.20
2018-12-17T18:20:11.653Z,8.20
2018-12-17T18:22:37.922Z,8.40
2018-12-17T18:25:04.213Z,8.40
2018-12-17T18:27:30.446Z,8.20
2018-12-17T18:29:56.955Z,8.20
2018-12-17T18:32:26.070Z,8.20
2018-12-17T18:34:50.205Z,8.20
2018-12-17T18:37:16.443Z,8.20
2018-12-17T18:39:43.415Z,8.10
2018-12-17T18:42:09.688Z,8.10
2018-12-17T18:44:35.983Z,8.10
2018-12-17T18:47:02.263Z,8.00
2018-12-17T18:49:28.566Z,8.00
2018-12-17T18:51:54.819Z,8.10
2018-12-17T18:54:21.063Z,8.00
2018-12-17T18:56:48.051Z,7.90
2018-12-17T18:59:14.376Z,7.90
2018-12-17T19:01:40.724Z,7.90
2018-12-17T19:04:07.075Z,8.10
2018-12-17T19:06:33.361Z,8.30
2018-12-17T19:08:59.953Z,8.20
2018-12-17T19:11:26.200Z,8.20
2018-12-17T19:13:53.237Z,8.00
2018-12-17T19:16:19.502Z,8.00
2018-12-17T19:18:45.777Z,8.00
2018-12-17T19:21:12.004Z,8.10
2018-12-17T19:23:38.328Z,8.20
2018-12-17T19:26:04.596Z,8.20
2018-12-17T19:28:30.902Z,8.20
2018-12-17T19:30:57.925Z,8.30
2018-12-17T19:33:24.279Z,8.30
2018-12-17T19:35:50.528Z,8.30
2018-12-17T19:38:16.773Z,8.20
2018-12-17T19:40:43.034Z,8.20
2018-12-17T19:43:09.321Z,8.10
2018-12-17T19:45:35.619Z,8.10
2018-12-17T19:48:02.867Z,8.10
2018-12-17T19:50:29.188Z,8.20
2018-12-17T19:52:55.436Z,8.20
2018-12-17T19:55:21.748Z,8.20
2018-12-17T19:57:48.042Z,8.20
2018-12-17T20:00:14.362Z,8.20
2018-12-17T20:02:46.856Z,8.10
2018-12-17T20:05:06.937Z,8.10
2018-12-17T20:07:33.256Z,8.10
2018-12-17T20:09:59.529Z,8.00
2018-12-17T20:12:26.564Z,8.10
2018-12-17T20:14:52.867Z,8.10
2018-12-17T20:17:19.145Z,8.00
2018-12-17T20:19:46.117Z,8.20
2018-12-17T20:22:12.360Z,8.20
2018-12-17T20:24:38.686Z,8.20
2018-12-17T20:27:04.964Z,8.10
2018-12-17T20:29:31.217Z,8.00
2018-12-17T20:31:57.482Z,8.00
2018-12-17T20:34:23.770Z,7.90
2018-12-17T20:36:50.787Z,7.90
2018-12-17T20:39:17.108Z,7.90
2018-12-17T20:44:07.006Z,8.10
2018-12-17T20:46:34.086Z,8.10
2018-12-17T20:49:01.304Z,8.00
2018-12-17T20:51:27.629Z,8.00
2018-12-17T20:53:53.931Z,8.00
2018-12-17T20:56:20.188Z,8.10
2018-12-17T20:58:46.477Z,8.10
2018-12-17T21:01:12.731Z,8.00
2018-12-17T21:03:38.976Z,8.00
2018-12-17T21:06:05.234Z,8.00
2018-12-17T21:08:32.252Z,7.90
2018-12-17T21:10:58.521Z,7.90
2018-12-17T21:13:24.782Z,7.90
2018-12-17T21:15:51.023Z,7.90
2018-12-17T21:18:17.306Z,7.90
2018-12-17T21:20:43.577Z,8.00
2018-12-17T21:23:09.818Z,8.10
2018-12-17T21:25:36.151Z,8.10
2018-12-17T21:28:02.414Z,8.10
2018-12-17T21:30:28.659Z,8.10
2018-12-17T21:32:55.162Z,8.20
2018-12-17T21:35:22.128Z,8.30
2018-12-17T21:37:48.371Z,8.30
2018-12-17T21:40:14.600Z,8.30
2018-12-17T21:42:40.807Z,8.40
2018-12-17T21:45:07.144Z,8.30
2018-12-17T21:47:33.382Z,8.30
2018-12-17T21:49:59.633Z,8.30
2018-12-17T21:52:25.860Z,8.30
2018-12-17T21:54:52.153Z,8.30
2018-12-17T21:57:18.380Z,8.20
2018-12-17T21:59:44.662Z,8.20
2018-12-17T22:02:10.877Z,8.10
2018-12-17T22:04:38.604Z,8.10
2018-12-17T22:07:04.882Z,8.10
2018-12-17T22:09:31.887Z,8.10
2018-12-17T22:11:58.128Z,8.10
2018-12-17T22:14:31.296Z,8.10
2018-12-17T22:16:57.522Z,8.20
2018-12-17T22:19:23.810Z,8.20
2018-12-17T22:21:50.820Z,8.30
2018-12-17T22:24:17.047Z,8.30
2018-12-17T22:26:43.253Z,8.30
2018-12-17T22:29:09.472Z,8.40
2018-12-17T22:31:35.768Z,8.30
2018-12-17T22:34:02.762Z,8.40
2018-12-17T22:36:29.012Z,8.40
2018-12-17T22:38:55.273Z,8.40
2018-12-17T22:41:22.240Z,8.40
2018-12-17T22:43:48.479Z,8.40
2018-12-17T22:46:15.073Z,8.50
2018-12-17T22:48:42.045Z,8.50
2018-12-17T22:51:08.264Z,8.50
2018-12-17T22:53:35.105Z,8.60
2018-12-17T22:56:01.347Z,8.60
2018-12-17T22:58:27.565Z,8.70
2018-12-17T23:00:54.344Z,8.70
2018-12-17T23:03:26.102Z,8.70
2018-12-17T23:05:46.803Z,8.70
2018-12-17T23:08:13.051Z,8.70
2018-12-17T23:10:52.503Z,8.60
2018-12-17T23:13:31.936Z,8.60
2018-12-17T23:16:11.112Z,8.60
2018-12-17T23:18:37.296Z,8.60
2018-12-17T23:21:04.292Z,8.70
2018-12-17T23:23:30.501Z,8.70
2018-12-17T23:25:56.738Z,8.70
2018-12-17T23:28:22.965Z,8.70
2018-12-17T23:30:49.190Z,8.70
2018-12-17T23:33:15.403Z,8.70
2018-12-17T23:35:41.633Z,8.60
2018-12-17T23:38:07.843Z,8.70
2018-12-17T23:40:34.832Z,8.60
2018-12-17T23:43:01.068Z,8.60
2018-12-17T23:45:27.322Z,8.60
2018-12-17T23:47:54.420Z,8.60
2018-12-17T23:50:20.662Z,8.60
2018-12-17T23:52:46.891Z,8.60
2018-12-17T23:55:13.119Z,8.60
2018-12-17T23:57:39.331Z,8.60
